Puerto Lumbreras, Spain
Current Conditions -  °F | °C
As of 8:00 PM on Thursday 23 Oct 2014 (Local Time) from LERI Reporting Station
Clear Clear  
Wind Chill: 72°   Ceiling: Unl
Heat Index: 72°   Visibility: 6mi
Dew Point: 55°   Wind: 9mph
Humidity: 57%   Direction: 250°WSW
Pressure: 30.03"   Gusts: NA
Location:  37.56°N, 1.81°W
Report Text: LERI 231800Z 25008KT CAVOK 22/13 Q1017 NOSIG
Loading
Personal Weather Stations






























Interactive Weather Map
Tropical Storm Tracking
New forecast layout! Learn more

10-Day Weather Forecast

Advertisements
Track Severe Weather on mobile